createdAt,value
2023-07-17T00:01:02.619Z,3.42
2023-07-17T00:03:29.370Z,3.63
2023-07-17T00:05:57.932Z,3.40
2023-07-17T00:08:24.978Z,3.45
2023-07-17T00:10:52.278Z,3.15
2023-07-17T00:13:18.745Z,3.75
2023-07-17T00:15:45.198Z,3.05
2023-07-17T00:18:11.788Z,3.55
2023-07-17T00:20:38.466Z,3.38
2023-07-17T00:23:07.974Z,3.10
2023-07-17T00:25:37.977Z,4.07
2023-07-17T00:28:04.419Z,3.70
2023-07-17T00:30:30.865Z,3.60
2023-07-17T00:32:57.349Z,3.78
2023-07-17T00:35:23.736Z,3.63
2023-07-17T00:37:50.143Z,3.53
2023-07-17T00:40:16.561Z,3.72
2023-07-17T00:42:43.350Z,3.22
2023-07-17T00:45:09.801Z,3.88
2023-07-17T00:47:36.760Z,4.15
2023-07-17T00:50:04.893Z,3.70
2023-07-17T00:52:31.942Z,3.83
2023-07-17T00:55:00.176Z,3.65
2023-07-17T00:57:27.940Z,3.28
2023-07-17T00:59:55.717Z,3.88
2023-07-17T01:02:23.263Z,4.05
2023-07-17T01:04:49.956Z,2.92
2023-07-17T01:07:16.849Z,3.95
2023-07-17T01:09:43.774Z,3.90
2023-07-17T01:12:10.555Z,3.30
2023-07-17T01:14:37.141Z,3.75
2023-07-17T01:17:03.844Z,3.38
2023-07-17T01:19:31.331Z,4.03
2023-07-17T01:22:04.631Z,4.05
2023-07-17T01:24:31.391Z,4.65
2023-07-17T01:26:58.114Z,3.72
2023-07-17T01:29:24.625Z,3.78
2023-07-17T01:31:51.454Z,4.90
2023-07-17T01:34:17.971Z,3.90
2023-07-17T01:36:44.453Z,4.18
2023-07-17T01:39:10.974Z,4.60
2023-07-17T01:41:37.425Z,4.10
2023-07-17T01:44:04.218Z,4.10
2023-07-17T01:46:30.875Z,4.53
2023-07-17T01:48:57.483Z,4.50
2023-07-17T01:51:24.033Z,4.18
2023-07-17T01:53:55.010Z,4.10
2023-07-17T01:56:21.694Z,4.15
2023-07-17T01:58:48.558Z,4.03
2023-07-17T02:01:15.155Z,3.95
2023-07-17T02:03:42.051Z,3.55
2023-07-17T02:06:08.526Z,3.75
2023-07-17T02:08:36.411Z,3.60
2023-07-17T02:11:02.989Z,3.55
2023-07-17T02:13:29.756Z,4.10
2023-07-17T02:15:56.321Z,4.28
2023-07-17T02:18:22.939Z,4.10
2023-07-17T02:20:52.423Z,4.13
2023-07-17T02:23:19.269Z,3.15
2023-07-17T02:25:46.777Z,3.97
2023-07-17T02:28:15.214Z,3.85
2023-07-17T02:30:41.938Z,4.07
2023-07-17T02:33:08.797Z,3.60
2023-07-17T02:35:35.308Z,4.00
2023-07-17T02:38:01.876Z,4.07
2023-07-17T02:40:28.301Z,4.10
2023-07-17T02:42:55.049Z,3.72
2023-07-17T02:45:23.958Z,4.38
2023-07-17T02:47:50.554Z,3.80
2023-07-17T02:50:17.589Z,4.00
2023-07-17T02:52:44.545Z,4.30
2023-07-17T02:55:11.704Z,3.85
2023-07-17T02:57:38.208Z,4.25
2023-07-17T03:00:06.633Z,4.07
2023-07-17T03:02:33.037Z,4.95
2023-07-17T03:04:59.920Z,3.35
2023-07-17T03:07:29.105Z,3.97
2023-07-17T03:09:55.640Z,3.85
2023-07-17T03:12:22.106Z,3.55
2023-07-17T03:14:49.557Z,4.47
2023-07-17T03:17:16.096Z,3.70
2023-07-17T03:19:42.563Z,4.60
2023-07-17T03:22:09.044Z,4.32
2023-07-17T03:24:36.625Z,4.00
2023-07-17T03:27:03.297Z,4.20
2023-07-17T03:29:29.826Z,4.00
2023-07-17T03:31:56.446Z,4.22
2023-07-17T03:34:23.375Z,4.57
2023-07-17T03:36:50.653Z,4.00
2023-07-17T03:39:17.200Z,4.60
2023-07-17T03:41:45.339Z,3.70
2023-07-17T03:44:11.847Z,3.90
2023-07-17T03:46:38.279Z,4.45
2023-07-17T03:49:05.135Z,4.30
2023-07-17T03:51:31.555Z,4.22
2023-07-17T03:53:57.987Z,3.97
2023-07-17T03:56:24.780Z,4.13
2023-07-17T03:58:53.882Z,3.85
2023-07-17T04:01:20.850Z,4.57
2023-07-17T04:03:49.490Z,4.05
2023-07-17T04:06:17.480Z,4.85
2023-07-17T04:08:43.949Z,4.85
2023-07-17T04:11:11.781Z,3.78
2023-07-17T04:13:38.343Z,3.60
2023-07-17T04:16:05.056Z,4.35
2023-07-17T04:18:31.493Z,4.50
2023-07-17T04:20:57.900Z,4.00
2023-07-17T04:23:24.353Z,4.38
2023-07-17T04:25:51.568Z,4.30
2023-07-17T04:28:18.837Z,5.95
2023-07-17T04:30:45.404Z,4.47
2023-07-17T04:33:11.916Z,4.63
2023-07-17T04:35:39.514Z,4.70
2023-07-17T04:38:06.850Z,4.55
2023-07-17T04:40:33.361Z,4.72
2023-07-17T04:43:00.329Z,4.55
2023-07-17T04:45:27.363Z,4.80
2023-07-17T04:47:54.666Z,4.40
2023-07-17T04:50:24.585Z,4.78
2023-07-17T04:52:50.942Z,4.40
2023-07-17T04:55:19.603Z,4.88
2023-07-17T04:57:46.038Z,4.10
2023-07-17T05:00:14.264Z,4.50
2023-07-17T05:02:40.839Z,4.35
2023-07-17T05:05:07.622Z,4.35
2023-07-17T05:07:34.062Z,4.70
2023-07-17T05:10:00.828Z,4.22
2023-07-17T05:12:27.635Z,4.60
2023-07-17T05:14:54.114Z,4.40
2023-07-17T05:17:23.761Z,5.30
2023-07-17T05:19:50.506Z,4.30
2023-07-17T05:22:17.033Z,4.20
2023-07-17T05:24:43.710Z,3.95
2023-07-17T05:27:10.849Z,4.28
2023-07-17T05:29:39.593Z,4.40
2023-07-17T05:32:06.762Z,4.80
2023-07-17T05:34:34.696Z,4.40
2023-07-17T05:37:01.169Z,4.18
2023-07-17T05:39:28.231Z,4.35
2023-07-17T05:41:54.763Z,3.60
2023-07-17T05:44:21.289Z,3.25
2023-07-17T05:46:47.759Z,3.25
2023-07-17T05:49:15.547Z,3.05
2023-07-17T05:51:42.066Z,3.22
2023-07-17T05:54:08.445Z,3.17
2023-07-17T05:56:34.905Z,3.40
2023-07-17T05:59:01.259Z,3.30
2023-07-17T06:01:27.798Z,3.55
2023-07-17T06:03:54.267Z,3.22
2023-07-17T06:06:20.900Z,2.97
2023-07-17T06:08:47.324Z,3.65
2023-07-17T06:11:13.780Z,3.67
2023-07-17T06:13:40.224Z,3.15
2023-07-17T06:16:07.720Z,3.55
2023-07-17T06:18:37.000Z,3.13
2023-07-17T06:21:04.133Z,3.95
2023-07-17T06:23:30.754Z,3.65
2023-07-17T06:25:57.209Z,2.85
2023-07-17T06:28:23.626Z,3.17
2023-07-17T06:30:50.233Z,3.05
2023-07-17T06:33:16.712Z,3.58
2023-07-17T06:35:44.844Z,3.63
2023-07-17T06:38:11.355Z,3.50
2023-07-17T06:40:37.976Z,3.80
2023-07-17T06:43:04.712Z,3.40
2023-07-17T06:45:31.278Z,3.60
2023-07-17T06:47:57.685Z,3.47
2023-07-17T06:50:24.145Z,2.88
2023-07-17T06:52:50.482Z,3.20
2023-07-17T06:55:16.981Z,3.05
2023-07-17T06:57:43.460Z,3.53
2023-07-17T07:00:10.596Z,3.45
2023-07-17T07:02:39.668Z,3.08
2023-07-17T07:05:07.355Z,3.03
2023-07-17T07:07:33.893Z,3.03
2023-07-17T07:10:00.299Z,2.97
2023-07-17T07:12:26.858Z,2.60
2023-07-17T07:14:53.760Z,3.17
2023-07-17T07:17:20.222Z,3.55
2023-07-17T07:19:46.650Z,3.25
2023-07-17T07:22:13.095Z,3.22
2023-07-17T07:24:39.493Z,3.30
2023-07-17T07:27:06.281Z,3.53
2023-07-17T07:29:32.799Z,3.38
2023-07-17T07:31:59.335Z,3.45
2023-07-17T07:34:25.974Z,3.67
2023-07-17T07:36:52.299Z,4.00
2023-07-17T07:39:18.674Z,4.65
2023-07-17T07:41:45.200Z,4.43
2023-07-17T07:44:12.769Z,4.63
2023-07-17T07:46:40.018Z,3.38
2023-07-17T07:49:06.614Z,4.72
2023-07-17T07:51:35.371Z,4.00
2023-07-17T07:54:03.359Z,4.38
2023-07-17T07:56:29.774Z,4.40
2023-07-17T07:58:56.271Z,4.78
2023-07-17T08:01:22.738Z,4.45
2023-07-17T08:03:49.313Z,4.30
2023-07-17T08:06:16.817Z,4.30
2023-07-17T08:08:43.646Z,4.32
2023-07-17T08:11:10.079Z,4.55
2023-07-17T08:13:36.582Z,4.70
2023-07-17T08:16:03.164Z,5.03
2023-07-17T08:18:29.698Z,4.40
2023-07-17T08:20:57.217Z,5.03
2023-07-17T08:23:27.659Z,4.97
2023-07-17T08:25:54.287Z,4.90
2023-07-17T08:28:20.798Z,5.10
2023-07-17T08:30:47.208Z,4.78
2023-07-17T08:33:13.562Z,5.75
2023-07-17T08:35:42.324Z,4.60
2023-07-17T08:38:08.798Z,5.53
2023-07-17T08:40:40.182Z,4.93
2023-07-17T08:43:07.800Z,4.38
2023-07-17T08:45:34.974Z,4.68
2023-07-17T08:48:01.874Z,4.43
2023-07-17T08:50:28.703Z,5.07
2023-07-17T08:52:56.030Z,4.63
2023-07-17T08:55:22.719Z,4.05
2023-07-17T08:57:53.666Z,4.25
2023-07-17T09:00:21.026Z,4.15
2023-07-17T09:02:47.452Z,4.15
2023-07-17T09:05:13.969Z,4.50
2023-07-17T09:07:40.415Z,4.75
2023-07-17T09:10:20.106Z,4.28
2023-07-17T09:12:57.508Z,4.68
2023-07-17T09:15:30.956Z,5.53
2023-07-17T09:17:57.753Z,4.68
2023-07-17T09:20:24.856Z,4.75
2023-07-17T09:22:56.464Z,4.80
2023-07-17T09:25:28.363Z,4.18
2023-07-17T09:27:55.500Z,3.97
2023-07-17T09:30:25.785Z,4.60
2023-07-17T09:35:20.140Z,4.10
2023-07-17T09:37:47.168Z,4.25
2023-07-17T09:40:17.436Z,4.35
2023-07-17T09:42:46.382Z,4.47
2023-07-17T09:45:13.236Z,4.68
2023-07-17T09:47:40.202Z,4.63
2023-07-17T09:50:08.471Z,4.80
2023-07-17T09:52:35.286Z,4.25
2023-07-17T09:55:01.993Z,4.70
2023-07-17T09:57:30.981Z,4.05
2023-07-17T10:00:08.801Z,4.63
2023-07-17T10:02:40.780Z,4.57
2023-07-17T10:05:07.677Z,5.00
2023-07-17T10:07:38.838Z,4.25
2023-07-17T10:10:07.869Z,4.63
2023-07-17T10:12:35.678Z,4.50
2023-07-17T10:15:03.588Z,5.25
2023-07-17T10:17:35.443Z,3.80
2023-07-17T10:20:04.798Z,4.47
2023-07-17T10:22:36.839Z,4.97
2023-07-17T10:25:23.798Z,3.85
2023-07-17T10:28:03.606Z,4.65
2023-07-17T10:30:37.830Z,3.78
2023-07-17T10:33:14.513Z,4.82
2023-07-17T10:35:47.485Z,4.28
2023-07-17T10:38:16.408Z,4.40
2023-07-17T10:40:43.563Z,4.53
2023-07-17T10:43:14.088Z,4.38
2023-07-17T10:45:41.002Z,4.53
2023-07-17T10:48:07.943Z,4.22
2023-07-17T10:50:37.271Z,4.78
2023-07-17T10:53:05.427Z,4.83
2023-07-17T10:55:33.296Z,4.22
2023-07-17T10:58:01.802Z,4.00
2023-07-17T11:00:28.544Z,4.30
2023-07-17T11:02:58.060Z,4.22
2023-07-17T11:05:24.448Z,3.85
2023-07-17T11:07:51.270Z,6.22
2023-07-17T11:10:17.840Z,4.57
2023-07-17T11:12:44.669Z,4.93
2023-07-17T11:15:18.677Z,4.07
2023-07-17T11:17:46.695Z,4.30
2023-07-17T11:20:14.239Z,4.03
2023-07-17T11:22:40.767Z,4.20
2023-07-17T11:25:09.315Z,4.07
2023-07-17T11:27:37.041Z,4.03
2023-07-17T11:30:18.572Z,4.30
2023-07-17T11:32:45.249Z,4.60
2023-07-17T11:35:11.898Z,4.63
2023-07-17T11:37:38.471Z,5.00
2023-07-17T11:40:09.868Z,4.30
2023-07-17T11:42:56.182Z,4.15
2023-07-17T11:45:26.580Z,4.10
2023-07-17T11:47:54.850Z,4.70
2023-07-17T11:50:24.428Z,4.28
2023-07-17T11:53:04.686Z,5.57
2023-07-17T11:55:38.584Z,4.65
2023-07-17T11:58:18.961Z,4.30
2023-07-17T12:00:46.940Z,4.50
2023-07-17T12:03:13.652Z,4.78
2023-07-17T12:05:41.417Z,4.72
2023-07-17T12:08:08.384Z,4.55
2023-07-17T12:10:35.624Z,4.88
2023-07-17T12:13:03.775Z,4.40
2023-07-17T12:15:31.071Z,5.00
2023-07-17T12:17:57.780Z,4.53
2023-07-17T12:20:24.866Z,4.35
2023-07-17T12:22:56.194Z,5.22
2023-07-17T12:25:23.981Z,4.88
2023-07-17T12:27:51.118Z,4.88
2023-07-17T12:30:18.550Z,4.80
2023-07-17T12:32:45.528Z,4.10
2023-07-17T12:35:12.778Z,4.47
2023-07-17T12:37:39.371Z,4.43
2023-07-17T12:40:06.624Z,4.68
2023-07-17T12:42:33.142Z,5.20
2023-07-17T12:44:59.954Z,4.20
2023-07-17T12:47:26.855Z,5.45
2023-07-17T12:49:53.623Z,4.72
2023-07-17T12:52:20.219Z,4.40
2023-07-17T12:54:46.690Z,4.65
2023-07-17T12:57:16.305Z,4.72
2023-07-17T12:59:43.005Z,4.63
2023-07-17T13:02:10.377Z,5.25
2023-07-17T13:04:36.872Z,4.30
2023-07-17T13:07:03.717Z,4.57
2023-07-17T13:09:30.290Z,4.65
2023-07-17T13:11:56.815Z,5.07
2023-07-17T13:14:23.536Z,4.57
2023-07-17T13:16:49.999Z,4.72
2023-07-17T13:19:16.519Z,4.80
2023-07-17T13:21:43.044Z,4.80
2023-07-17T13:24:09.890Z,4.53
2023-07-17T13:26:36.332Z,4.60
2023-07-17T13:29:02.838Z,5.60
2023-07-17T13:31:29.519Z,4.68
2023-07-17T13:33:56.134Z,5.07
2023-07-17T13:36:22.647Z,4.85
2023-07-17T13:38:49.182Z,4.70
2023-07-17T13:41:50.224Z,4.97
2023-07-17T13:44:18.075Z,5.03
2023-07-17T13:46:47.965Z,5.53
2023-07-17T13:49:16.328Z,5.07
2023-07-17T13:51:43.882Z,4.95
2023-07-17T13:54:10.625Z,5.43
2023-07-17T13:59:07.790Z,5.15
2023-07-17T14:01:35.857Z,4.53
2023-07-17T14:04:03.073Z,4.82
2023-07-17T14:06:32.067Z,4.70
2023-07-17T14:08:58.524Z,4.82
2023-07-17T14:11:28.669Z,5.15
2023-07-17T14:13:59.606Z,4.88
2023-07-17T14:16:26.758Z,4.75
2023-07-17T14:18:53.398Z,5.05
2023-07-17T14:21:20.239Z,5.13
2023-07-17T14:23:47.186Z,4.82
2023-07-17T14:26:13.765Z,4.90
2023-07-17T14:28:40.186Z,4.80
2023-07-17T14:31:06.783Z,5.05
2023-07-17T14:33:33.574Z,5.00
2023-07-17T14:36:00.220Z,5.05
2023-07-17T14:38:26.751Z,4.82
2023-07-17T14:40:53.515Z,5.13
2023-07-17T14:43:20.096Z,4.60
2023-07-17T14:45:46.608Z,5.03
2023-07-17T14:48:13.334Z,4.55
2023-07-17T14:50:39.878Z,5.00
2023-07-17T14:53:06.488Z,4.47
2023-07-17T14:55:35.204Z,4.43
2023-07-17T15:00:29.845Z,4.95
2023-07-17T15:02:56.771Z,4.40
2023-07-17T15:05:24.205Z,4.38
2023-07-17T15:07:51.093Z,4.72
2023-07-17T15:10:19.307Z,4.70
2023-07-17T15:12:45.964Z,4.65
2023-07-17T15:15:12.442Z,4.22
2023-07-17T15:17:39.001Z,4.78
2023-07-17T15:20:06.657Z,4.63
2023-07-17T15:22:33.401Z,5.20
2023-07-17T15:25:00.234Z,4.97
2023-07-17T15:27:26.782Z,4.63
2023-07-17T15:29:53.765Z,5.55
2023-07-17T15:32:20.645Z,4.43
2023-07-17T15:34:47.180Z,4.70
2023-07-17T15:37:14.100Z,4.07
2023-07-17T15:39:40.452Z,4.18
2023-07-17T15:42:07.556Z,5.00
2023-07-17T15:44:34.339Z,4.30
2023-07-17T15:47:01.236Z,4.93
2023-07-17T15:49:27.810Z,4.15
2023-07-17T15:51:54.447Z,5.18
2023-07-17T15:54:21.331Z,4.30
2023-07-17T15:56:47.956Z,4.70
2023-07-17T15:59:14.879Z,4.28
2023-07-17T16:01:41.541Z,4.60
2023-07-17T16:04:08.161Z,4.32
2023-07-17T16:06:34.646Z,5.18
2023-07-17T16:09:01.179Z,4.55
2023-07-17T16:11:30.704Z,4.80
2023-07-17T16:13:57.245Z,4.68
2023-07-17T16:16:23.771Z,4.40
2023-07-17T16:18:50.270Z,4.35
2023-07-17T16:21:17.102Z,4.70
2023-07-17T16:23:44.800Z,4.57
2023-07-17T16:26:11.398Z,5.28
2023-07-17T16:28:38.266Z,4.72
2023-07-17T16:31:04.815Z,4.88
2023-07-17T16:33:31.629Z,4.65
2023-07-17T16:35:58.588Z,4.80
2023-07-17T16:38:25.148Z,4.70
2023-07-17T16:40:51.658Z,4.38
2023-07-17T16:43:18.249Z,4.53
2023-07-17T16:45:45.568Z,4.30
2023-07-17T16:48:12.664Z,5.45
2023-07-17T16:50:39.389Z,4.53
2023-07-17T16:53:06.395Z,4.78
2023-07-17T16:55:33.084Z,4.65
2023-07-17T16:57:59.653Z,5.45
2023-07-17T17:00:26.614Z,4.55
2023-07-17T17:02:53.421Z,4.85
2023-07-17T17:05:19.932Z,4.53
2023-07-17T17:07:46.829Z,4.57
2023-07-17T17:10:13.303Z,4.78
2023-07-17T17:12:39.898Z,4.43
2023-07-17T17:15:07.583Z,4.55
2023-07-17T17:17:34.372Z,4.32
2023-07-17T17:20:01.198Z,4.97
2023-07-17T17:22:27.741Z,4.43
2023-07-17T17:24:54.438Z,4.35
2023-07-17T17:27:21.153Z,4.28
2023-07-17T17:29:48.076Z,5.05
2023-07-17T17:32:15.395Z,4.57
2023-07-17T17:34:42.195Z,4.82
2023-07-17T17:37:08.894Z,4.45
2023-07-17T17:39:35.479Z,4.60
2023-07-17T17:42:02.024Z,4.68
2023-07-17T17:44:28.902Z,4.15
2023-07-17T17:46:55.404Z,4.30
2023-07-17T17:49:21.913Z,4.43
2023-07-17T17:51:48.383Z,4.40
2023-07-17T17:54:15.243Z,4.20
2023-07-17T17:56:41.742Z,4.07
2023-07-17T17:59:08.117Z,4.38
2023-07-17T18:01:34.816Z,4.47
2023-07-17T18:04:01.439Z,4.35
2023-07-17T18:06:28.338Z,3.55
2023-07-17T18:08:54.835Z,3.60
2023-07-17T18:11:21.508Z,4.28
2023-07-17T18:13:48.197Z,3.65
2023-07-17T18:16:14.949Z,3.80
2023-07-17T18:18:41.526Z,3.92
2023-07-17T18:21:09.024Z,3.65
2023-07-17T18:23:35.592Z,3.65
2023-07-17T18:26:02.105Z,3.85
2023-07-17T18:28:28.865Z,3.90
2023-07-17T18:30:55.394Z,3.72
2023-07-17T18:33:21.943Z,3.72
2023-07-17T18:35:48.878Z,3.15
2023-07-17T18:38:15.894Z,3.50
2023-07-17T18:40:42.296Z,4.30
2023-07-17T18:43:09.227Z,3.15
2023-07-17T18:45:36.925Z,3.42
2023-07-17T18:48:03.526Z,3.40
2023-07-17T18:50:30.317Z,3.15
2023-07-17T18:52:59.348Z,3.15
2023-07-17T18:55:26.907Z,3.45
2023-07-17T18:57:53.845Z,3.20
2023-07-17T19:00:20.520Z,3.03
2023-07-17T19:02:48.182Z,2.90
2023-07-17T19:05:14.626Z,3.35
2023-07-17T19:07:41.292Z,2.70
2023-07-17T19:10:08.886Z,3.10
2023-07-17T19:12:35.465Z,2.92
2023-07-17T19:15:03.338Z,2.45
2023-07-17T19:17:29.811Z,2.65
2023-07-17T19:19:56.208Z,2.83
2023-07-17T19:22:22.952Z,2.58
2023-07-17T19:24:49.359Z,2.75
2023-07-17T19:27:15.777Z,2.80
2023-07-17T19:29:42.122Z,2.80
2023-07-17T19:32:08.885Z,2.53
2023-07-17T19:34:35.283Z,2.40
2023-07-17T19:37:02.066Z,3.00
2023-07-17T19:39:28.568Z,2.13
2023-07-17T19:41:55.145Z,2.67
2023-07-17T19:44:21.689Z,2.60
2023-07-17T19:46:48.069Z,2.15
2023-07-17T19:49:14.668Z,2.45
2023-07-17T19:51:41.147Z,3.05
2023-07-17T19:54:07.616Z,2.88
2023-07-17T19:56:34.054Z,2.85
2023-07-17T19:59:00.448Z,2.17
2023-07-17T20:01:27.064Z,2.83
2023-07-17T20:03:53.816Z,2.53
2023-07-17T20:06:21.332Z,2.53
2023-07-17T20:08:49.964Z,2.80
2023-07-17T20:11:16.784Z,3.80
2023-07-17T20:13:43.316Z,3.55
2023-07-17T20:16:09.770Z,3.53
2023-07-17T20:18:36.226Z,3.10
2023-07-17T20:21:02.630Z,3.00
2023-07-17T20:23:29.348Z,2.50
2023-07-17T20:25:56.134Z,2.80
2023-07-17T20:28:23.100Z,2.72
2023-07-17T20:30:49.578Z,3.22
2023-07-17T20:33:18.043Z,2.58
2023-07-17T20:35:44.621Z,2.17
2023-07-17T20:38:11.218Z,2.88
2023-07-17T20:40:37.678Z,2.28
2023-07-17T20:43:04.111Z,2.20
2023-07-17T20:45:30.870Z,3.88
2023-07-17T20:47:57.441Z,3.22
2023-07-17T20:50:24.088Z,3.25
2023-07-17T20:52:50.492Z,3.28
2023-07-17T20:55:18.150Z,3.38
2023-07-17T20:57:44.630Z,3.63
2023-07-17T21:00:11.785Z,4.03
2023-07-17T21:02:39.569Z,3.15
2023-07-17T21:05:06.799Z,4.05
2023-07-17T21:07:33.629Z,3.53
2023-07-17T21:10:00.347Z,3.55
2023-07-17T21:12:27.498Z,3.17
2023-07-17T21:14:54.108Z,3.80
2023-07-17T21:17:21.024Z,3.33
2023-07-17T21:19:47.660Z,3.78
2023-07-17T21:22:15.984Z,3.38
2023-07-17T21:24:43.341Z,4.57
2023-07-17T21:27:10.017Z,4.47
2023-07-17T21:29:38.113Z,4.32
2023-07-17T21:32:04.828Z,4.70
2023-07-17T21:34:33.098Z,5.28
2023-07-17T21:36:59.723Z,4.35
2023-07-17T21:39:26.364Z,5.30
2023-07-17T21:41:52.905Z,5.05
2023-07-17T21:44:19.388Z,5.30
2023-07-17T21:46:45.914Z,4.80
2023-07-17T21:49:12.491Z,4.65
2023-07-17T21:51:39.222Z,5.43
2023-07-17T21:54:05.863Z,4.70
2023-07-17T21:56:32.442Z,5.03
2023-07-17T21:58:59.365Z,5.05
2023-07-17T22:01:25.941Z,4.07
2023-07-17T22:03:52.529Z,4.32
2023-07-17T22:06:19.161Z,4.75
2023-07-17T22:08:45.864Z,3.50
2023-07-17T22:11:15.531Z,3.75
2023-07-17T22:13:41.942Z,4.10
2023-07-17T22:16:08.530Z,4.22
2023-07-17T22:18:35.101Z,3.80
2023-07-17T22:21:01.738Z,3.58
2023-07-17T22:23:28.731Z,3.60
2023-07-17T22:25:55.545Z,3.83
2023-07-17T22:28:22.360Z,3.75
2023-07-17T22:30:48.991Z,3.60
2023-07-17T22:33:15.541Z,4.05
2023-07-17T22:35:42.282Z,3.78
2023-07-17T22:38:09.000Z,3.42
2023-07-17T22:40:35.705Z,3.08
2023-07-17T22:43:02.477Z,3.72
2023-07-17T22:45:29.025Z,3.50
2023-07-17T22:47:56.060Z,3.65
2023-07-17T22:50:22.734Z,3.30
2023-07-17T22:52:49.471Z,3.13
2023-07-17T22:55:16.110Z,3.30
2023-07-17T22:57:42.712Z,3.10
2023-07-17T23:00:09.604Z,3.33
2023-07-17T23:02:36.089Z,3.35
2023-07-17T23:05:03.374Z,2.63
2023-07-17T23:07:30.201Z,2.90
2023-07-17T23:09:57.201Z,3.30
2023-07-17T23:12:23.898Z,3.95
2023-07-17T23:14:50.520Z,3.50
2023-07-17T23:17:17.044Z,3.33
2023-07-17T23:19:43.795Z,3.33
2023-07-17T23:22:10.270Z,3.10
2023-07-17T23:24:36.718Z,3.00
2023-07-17T23:27:03.470Z,3.28
2023-07-17T23:29:30.011Z,3.20
2023-07-17T23:31:56.465Z,3.10
2023-07-17T23:34:23.286Z,2.83
2023-07-17T23:36:49.881Z,2.88
2023-07-17T23:39:16.795Z,2.67
2023-07-17T23:41:43.349Z,2.90
2023-07-17T23:44:10.024Z,3.63
2023-07-17T23:46:36.483Z,3.72
2023-07-17T23:49:03.357Z,3.38
2023-07-17T23:51:30.159Z,2.63
2023-07-17T23:53:57.261Z,2.92
2023-07-17T23:56:24.363Z,2.95
2023-07-17T23:58:50.944Z,2.95
